CheckWX is a tool to help pilots better visualize weather data.  It is not intended as a substitute for an official pre-flight weather briefing.

15:06:35 UTC

KGSB METAR
Seymour Johnson AFB Airport
Goldsboro, North Carolina, USA
Current

11 mins ago

KGSB 211456Z AUTO 26013G19KT 10SM CLR 33/24 A3000 RMK AO2 SLP161 T03260235 51005 $
Observed
Jul-21 @ 14:56 UTC
Wind
  • 260° at 13 KTS
  • Gusting to 19 KTS
Visibility
10 SM
Flight Rules
VFR
Cloud Levels
  • Clear skies
Temperature
33°C / 91°F
Dewpoint
24°C / 75°F
Heat Index
39°C / 102°F
Humidity
59%
Altimeter
30" Hg
Pressure
1015.92 hPa
Previous

1 hour ago

KGSB 211356Z AUTO 25013KT 10SM CLR 31/24 A2999 RMK AO2 SLP157 T03080239 $
Observed
Jul-21 @ 13:56 UTC
Wind
  • 250° at 13 KTS
Visibility
10 SM
Flight Rules
VFR
Cloud Levels
  • Clear skies
Temperature
31°C / 88°F
Dewpoint
24°C / 75°F
Heat Index
37°C / 98°F
Humidity
66%
Altimeter
29.99" Hg
Pressure
1015.62 hPa
Previous

2 hours ago

KGSB 211256Z AUTO 24012KT 10SM CLR 29/24 A2999 RMK AO2 SLP157 T02890235 $
Observed
Jul-21 @ 12:56 UTC
Wind
  • 240° at 12 KTS
Visibility
10 SM
Flight Rules
VFR
Cloud Levels
  • Clear skies
Temperature
29°C / 84°F
Dewpoint
24°C / 75°F
Heat Index
33°C / 92°F
Humidity
74%
Altimeter
29.99" Hg
Pressure
1015.62 hPa